Arroyo, Spain
Current Conditions -  °F | °C
As of 9:30 PM on Thursday 18 Dec 2014 (Local Time) from LEVD Reporting Station
Moderate Fog Moderate Fog  
Wind Chill: 34°   Ceiling: Unl
Heat Index: 34°   Visibility: 0.12mi
Dew Point: 34°   Wind: 3mph
Humidity: 100%   Direction: 350°N
Pressure: 30.42"   Gusts: NA
Location:  41.61°N, 4.8°W
Report Text: LEVD 182030Z 35003KT 0200 R23/0900U R05/0600U FG NSC 01/01 Q1030
Loading
Personal Weather Stations






























Interactive Weather Map New forecast layout! Learn more

10-Day Weather Forecast

Advertisements
Track Severe Weather on mobile